Hoskings Ranch (222) Station Data

Red Flag Warning: No
Fire Weather Zone: 258
SDGE Region: Ramona
Lat/Lon: 33.083/-116.657

Observations

Time Wind Speed/Gust Temp(F) RH Fuel Moist Fuel Temp(F) Dewpt(F) Tmax(F) Tmin(F) Accum Precip 10-min Precip SL Press(mb)
5/24 8:20am 188 3 G 8 68° 43% - - 44° 72.5° 61.4° - - -
5/24 8:10am 173 2 G 4 66° 43% - - 43° 72.5° 61.4° - - -
5/24 8:00am 193 3 G 6 64° 48% - - 44° 72.5° 61.4° - - -
5/24 7:50am 232 8 G 11 65° 48% - - 45° 72.5° 61.4° - - -
5/24 7:40am 224 7 G 10 66° 48% - - 46° 72.5° 61.4° - - -
5/24 7:30am 232 6 G 9 69° 45% - - 47° 72.5° 61.4° - - -
5/24 7:20am 200 3 G 4 70° 41% - - 46° 72.5° 61.4° - - -
5/24 7:10am 186 2 G 3 70° 41% - - 45° 72.5° 61.4° - - -
5/24 7:00am 183 2 G 4 70° 41% - - 45° 72.5° 61.4° - - -
5/24 6:50am 185 3 G 4 70° 39% - - 44° 72.5° 61.4° - - -
5/24 6:40am 151 1 G 2 69° 42% - - 45° 72.5° 61.4° - - -
5/24 6:30am 113 0 G 1 69° 42% - - 45° 72.5° 61.4° - - -
5/24 6:20am 107 1 G 3 69° 39% - - 43° 72.5° 61.4° - - -
5/24 6:10am 182 2 G 4 69° 39% - - 43° 72.5° 61.4° - - -
5/24 6:00am 181 2 G 4 68° 39% - - 42° 72.5° 61.4° - - -
5/24 5:50am 104 1 G 3 64° 44% - - 41° 72.5° 61.4° - - -
5/24 5:40am 48 2 G 3 62° 44% - - 40° 72.5° 61.4° - - -
5/24 5:30am 42 2 G 3 62° 44% - - 40° 72.5° 61.4° - - -
5/24 5:20am 82 3 G 4 64° 41% - - 40° 72.5° 61.5° - - -
5/24 5:10am 78 1 G 2 63° 43% - - 41° 72.5° 61.5° - - -
5/24 5:00am 62 1 G 3 63° 44% - - 41° 72.5° 61.5° - - -
5/24 4:50am 80 1 G 2 63° 44% - - 41° 72.5° 61.5° - - -
5/24 4:40am 68 2 G 3 63° 42% - - 40° 72.5° 61.5° - - -
5/24 4:30am 81 2 G 3 62° 42% - - 39° 72.5° 61.5° - - -
5/24 4:20am 64 1 G 3 62° 41% - - 38° 72.5° 61.5° - - -
5/24 4:10am 48 1 G 2 63° 42% - - 40° 72.5° 62.4° - - -
5/24 4:00am 53 1 G 1 64° 41% - - 40° 72.5° 62.6° - - -
5/24 3:50am 247 2 G 3 65° 42% - - 41° 72.5° 63.8° - - -
5/24 3:40am 246 2 G 4 66° 42% - - 42° 72.5° 63.8° - - -
5/24 3:30am 246 2 G 3 68° 34% - - 38° 72.5° 63.8° - - -
5/24 3:20am 221 3 G 4 70° 27% - - 34° 72.5° 63.8° - - -
5/24 3:10am 200 2 G 3 70° 26% - - 33° 72.5° 63.8° - - -
5/24 3:00am 203 3 G 5 70° 25% - - 33° 72.5° 63.8° - - -
5/24 2:50am 194 4 G 5 71° 23% - - 31° 72.5° 63.8° - - -
5/24 2:40am 189 5 G 6 72° 23% - - 32° 72.5° 63.8° - - -
5/24 2:30am 190 4 G 5 72° 24% - - 33° 72.5° 63.8° - - -
5/24 2:20am 190 1 G 3 70° 28% - - 35° 71.1° 63.8° - - -
5/24 2:10am 85 1 G 2 68° 38% - - 42° 69.6° 63.8° - - -
5/24 2:00am 81 2 G 5 68° 50% - - 48° 69.6° 63.8° - - -
5/24 1:50am 83 2 G 4 66° 57% - - 51° 69.6° 63.8° - - -
5/24 1:40am 72 2 G 4 65° 60% - - 50° 69.6° 63.8° - - -
5/24 1:30am 73 4 G 6 65° 58% - - 49° 69.6° 63.9° - - -
5/24 1:20am 72 2 G 4 65° 61% - - 51° 69.6° 64° - - -
5/24 1:10am 92 1 G 2 66° 60% - - 52° 69.6° 65.1° - - -
5/24 1:00am 80 0 G 1 66° 58% - - 51° 69.6° 65.1° - - -
5/24 12:50am 192 2 G 3 67° 55% - - 50° 69.6° 66.1° - - -
5/24 12:40am 206 3 G 4 68° 52% - - 50° 69.6° 66.1° - - -
5/24 12:30am 207 2 G 3 68° 49% - - 48° 69.6° 66.1° - - -
5/24 12:20am 71 0 G 1 67° 50% - - 47° 69.6° 66.1° - - -
5/24 12:10am 62 1 G 2 68° 44% - - 46° 69.6° 66.7° - - -
5/24 12:00am 193 1 G 3 70° 41% - - 45° 85.7° 66.4° - - -
5/23 11:50pm 207 2 G 4 71° 42% - - 46° 85.7° 66.4° - - -
5/23 11:40pm 213 3 G 4 72° 36% - - 43° 85.7° 66.4° - - -
5/23 11:30pm 204 3 G 4 72° 34% - - 42° 85.7° 66.4° - - -
5/23 11:20pm 195 2 G 3 72° 32% - - 41° 85.7° 66.4° - - -
5/23 11:10pm 200 1 G 3 71° 33% - - 41° 85.7° 66.4° - - -
5/23 11:00pm 32 0 G 1 70° 39% - - 44° 85.7° 66.4° - - -
5/23 10:50pm 40 0 G 1 69° 42% - - 45° 85.7° 66.4° - - -
5/23 10:40pm 74 1 G 1 68° 47% - - 48° 85.7° 66.4° - - -
5/23 10:30pm 88 1 G 1 69° 48% - - 48° 85.7° 66.4° - - -
5/23 10:20pm 77 1 G 1 70° 47% - - 49° 85.7° 66.4° - - -
5/23 10:10pm 81 1 G 1 69° 51% - - 50° 85.7° 66.4° - - -
5/23 10:00pm 161 1 G 2 70° 47% - - 49° 85.7° 66.4° - - -
5/23 9:50pm 229 0 G 2 69° 47% - - 48° 85.7° 66.4° - - -
5/23 9:40pm 41 0 G 1 69° 50% - - 49° 85.7° 66.4° - - -
5/23 9:30pm 32 1 G 2 69° 53% - - 51° 85.7° 66.4° - - -
5/23 9:20pm 57 1 G 2 68° 55% - - 51° 85.7° 66.4° - - -
5/23 9:10pm 65 2 G 3 69° 58% - - 53° 85.7° 66.4° - - -
5/23 9:00pm 78 3 G 4 68° 60% - - 54° 85.7° 66.4° - - -
5/23 8:50pm 83 2 G 4 68° 61% - - 54° 85.7° 66.4° - - -
5/23 8:40pm 62 2 G 4 67° 63% - - 54° 85.7° 66.4° - - -
5/23 8:30pm 40 3 G 4 67° 64% - - 54° 85.7° 66.4° - - -
5/23 8:20pm 70 3 G 4 68° 61% - - 53° 85.7° 66.9° - - -
5/23 8:10pm 195 2 G 3 68° 57% - - 53° 85.7° 67.9° - - -
5/23 8:00pm 241 3 G 5 69° 57% - - 53° 85.7° 68.5° - - -
5/23 7:50pm 233 4 G 6 71° 55% - - 54° 85.7° 68.9° - - -
5/23 7:40pm 233 5 G 7 72° 54% - - 54° 85.7° 68.9° - - -
5/23 7:30pm 232 6 G 9 72° 53% - - 54° 85.7° 68.9° - - -
5/23 7:20pm 218 8 G 12 73° 51% - - 54° 85.7° 68.9° - - -
5/23 7:10pm 224 8 G 12 75° 44% - - 52° 85.7° 68.9° - - -
5/23 7:00pm 230 7 G 10 76° 41% - - 51° 85.7° 68.9° - - -
5/23 6:50pm 233 6 G 8 77° 38% - - 49° 85.7° 68.9° - - -
5/23 6:40pm 241 6 G 8 77° 36% - - 48° 85.7° 68.9° - - -
5/23 6:30pm 241 6 G 8 77° 39% - - 51° 85.7° 68.9° - - -
5/23 6:20pm 251 6 G 8 78° 35% - - 48° 85.7° 68.9° - - -
5/23 6:10pm 257 4 G 8 79° 34% - - 47° 85.7° 68.9° - - -
5/23 6:00pm 245 3 G 6 79° 37% - - 51° 85.7° 68.9° - - -
5/23 5:50pm 270 2 G 5 78° 42% - - 53° 85.7° 68.9° - - -
5/23 5:40pm 244 3 G 6 78° 42% - - 53° 85.7° 68.9° - - -
5/23 5:30pm 262 4 G 7 77° 42% - - 52° 85.7° 68.9° - - -
5/23 5:20pm 245 4 G 8 78° 41% - - 52° 85.7° 68.9° - - -
5/23 5:10pm 231 5 G 8 77° 41% - - 52° 85.7° 68.9° - - -
5/23 5:00pm 265 5 G 9 77° 41% - - 52° 85.7° 68.9° - - -
5/23 4:50pm 227 5 G 8 77° 42% - - 52° 85.7° 68.9° - - -
5/23 4:40pm 227 7 G 12 76° 43% - - 52° 85.7° 68.9° - - -
5/23 4:30pm 232 8 G 13 76° 45% - - 53° 85.7° 68.9° - - -
5/23 4:20pm 233 8 G 15 76° 46% - - 54° 85.7° 68.9° - - -
5/23 4:10pm 229 10 G 14 76° 46% - - 53° 85.7° 68.9° - - -
5/23 4:00pm 226 11 G 15 76° 48% - - 54° 85.7° 68.9° - - -
5/23 3:50pm 233 10 G 15 76° 48% - - 55° 85.7° 68.9° - - -
5/23 3:40pm 235 10 G 15 76° 51% - - 57° 85.7° 68.9° - - -
5/23 3:30pm 234 11 G 16 76° 51% - - 57° 85.7° 68.9° - - -
5/23 3:20pm 232 11 G 16 77° 51% - - 58° 85.7° 68.9° - - -
5/23 3:10pm 228 14 G 18 77° 51% - - 58° 85.7° 68.9° - - -
5/23 3:00pm 234 12 G 17 78° 50% - - 58° 85.7° 68.9° - - -
5/23 2:50pm 236 12 G 17 78° 47% - - 57° 85.7° 68.9° - - -
5/23 2:40pm 236 12 G 16 79° 47% - - 57° 85.7° 68.9° - - -
5/23 2:30pm 232 12 G 16 80° 45% - - 57° 85.7° 68.9° - - -
5/23 2:20pm 234 12 G 16 80° 43% - - 56° 85.7° 68.9° - - -
5/23 2:10pm 237 13 G 18 81° 43% - - 56° 85.7° 68.9° - - -
5/23 2:00pm 227 11 G 17 82° 40% - - 55° 85.7° 68.9° - - -
5/23 1:50pm 239 10 G 15 82° 38% - - 54° 85.7° 68.9° - - -
5/23 1:40pm 223 9 G 15 82° 36% - - 52° 85.7° 68.9° - - -
5/23 1:30pm 234 10 G 16 82° 33% - - 51° 85.7° 68.9° - - -
5/23 1:20pm 222 10 G 15 82° 32% - - 50° 85.7° 68.9° - - -
5/23 1:10pm 230 8 G 14 83° 31% - - 49° 85.7° 68.9° - - -
5/23 1:00pm 236 11 G 15 83° 30% - - 48° 85.7° 68.9° - - -
5/23 12:50pm 234 11 G 16 83° 27% - - 45° 85.7° 68.9° - - -
5/23 12:40pm 231 10 G 14 83° 26% - - 45° 85.7° 68.9° - - -
5/23 12:30pm 233 11 G 15 83° 27% - - 46° 85.7° 68.9° - - -
5/23 12:20pm 237 12 G 16 83° 27% - - 46° 85.7° 68.9° - - -
5/23 12:10pm 232 11 G 15 83° 28% - - 46° 85.7° 68.9° - - -
5/23 12:00pm 227 11 G 16 83° 30% - - 48° 85.7° 68.9° - - -
5/23 11:50am 235 8 G 10 84° 26% - - 45° 85.7° 68.9° - - -
5/23 11:40am 237 7 G 11 83° 30% - - 48° 85.7° 68.9° - - -
5/23 11:30am 244 6 G 9 83° 31% - - 49° 85.7° 68.9° - - -
5/23 11:20am 234 8 G 11 82° 31% - - 48° 85.7° 68.9° - - -
5/23 11:10am 229 8 G 10 82° 32% - - 50° 85.7° 68.9° - - -
5/23 11:00am 246 5 G 8 82° 33% - - 50° 85.7° 68.9° - - -
5/23 10:50am 231 6 G 9 81° 35% - - 51° 85.7° 68.9° - - -
5/23 10:40am 229 6 G 7 81° 36% - - 51° 85.7° 68.9° - - -
5/23 10:30am 236 5 G 7 81° 36% - - 52° 85.7° 68.9° - - -
5/23 10:20am 234 6 G 8 81° 35% - - 50° 85.7° 68.9° - - -
5/23 10:10am 251 5 G 9 83° 25% - - 43° 85.7° 68.9° - - -
5/23 10:00am 268 4 G 6 83° 18% - - 36° 85.7° 68.9° - - -
5/23 9:50am 254 4 G 5 84° 17% - - 34° 85.7° 68.9° - - -
5/23 9:40am 250 3 G 5 84° 17% - - 35° 85.7° 68.9° - - -
5/23 9:30am 80 1 G 3 84° 16% - - 34° 85.7° 68.9° - - -
5/23 9:20am 52 3 G 4 83° 17% - - 34° 84.3° 68.9° - - -
5/23 9:10am 63 3 G 4 84° 18% - - 35° 84.3° 68.9° - - -
5/23 9:00am 70 2 G 4 83° 17% - - 34° 84.2° 68.9° - - -
5/23 8:50am 65 3 G 4 82° 19% - - 36° 82.8° 68.9° - - -
5/23 8:40am 55 2 G 3 82° 22% - - 39° 82.7° 68.9° - - -
5/23 8:30am 70 2 G 4 82° 21% - - 38° 82.5° 68.9° - - -
5/23 8:20am 89 1 G 3 81° 22% - - 38° 82.4° 68.9° - - -
5/23 8:10am 102 2 G 4 79° 20% - - 35° 80.2° 68.9° - - -
5/23 8:00am 80 1 G 3 79° 23% - - 38° 79.5° 68.9° - - -
5/23 7:50am 93 1 G 3 79° 24% - - 39° 79.5° 68.9° - - -
5/23 7:40am 80 1 G 4 79° 26% - - 41° 79.5° 68.9° - - -
5/23 7:30am 57 2 G 4 79° 22% - - 37° 79.5° 68.9° - - -
5/23 7:20am 78 2 G 4 78° 21% - - 35° 79° 68.9° - - -
5/23 7:10am 65 2 G 4 76° 21% - - 34° 77.7° 68.9° - - -
5/23 7:00am 75 2 G 4 75° 23% - - 34° 76.7° 68.9° - - -
5/23 6:50am 59 3 G 5 76° 21% - - 33° 76.7° 68.9° - - -
5/23 6:40am 54 2 G 4 75° 22% - - 33° 76.2° 68.9° - - -
5/23 6:30am 64 3 G 5 75° 21% - - 32° 75.8° 68.9° - - -
5/23 6:20am 61 2 G 4 75° 20% - - 31° 75.4° 68.9° - - -
5/23 6:10am 63 3 G 4 74° 21% - - 31° 74.8° 68.9° - - -
5/23 6:00am 64 3 G 4 72° 22% - - 31° 74.3° 68.9° - - -